M I D A S
Marine Information and Data Acquisition System
Tripno 1366 of the Zeeleeuw from 2007-11-27 07:43:13 to 2007-11-27 16:04:24
Back to CruiseResearch ActivitiesStationsMapUnderway DataData graphs

EquipmentUnitsComment
TimeDGPSUTC
LatitudeDGPSDM.mWGS84
LongitudeDGPSDM.mWGS84
HeadingGyrodeg 
SOGDGPSknotsSpeed over ground
COGDGPSdegCourse over ground
DepthEcho soundermeters200 kHz
Missing or incorrect values are displayed as -999
Navigation data collected by the RV Zeeleeuw from 2007-11-27 06:57:14 to 2007-11-27 16:15:21
                                                                                    Next 1000 lines
Time Latitude Longitude Heading SOG COG Depth
2007-11-27 06:57:23 51°13.592 2°56.087 125.1 0.1 28 -999
2007-11-27 06:57:29 51°13.596 2°56.09 125.1 -999 57 -999
2007-11-27 06:57:34 51°13.596 2°56.09 125.1 -999 187 -999
2007-11-27 06:57:39 51°13.596 2°56.091 125.1 -999 307 -999
2007-11-27 06:57:44 51°13.596 2°56.091 125.1 -999 286 -999
2007-11-27 06:57:49 51°13.596 2°56.091 125.1 -999 272 -999
2007-11-27 06:57:54 51°13.596 2°56.092 125.1 -999 43 -999
2007-11-27 06:57:59 51°13.596 2°56.092 125.1 -999 178 -999
2007-11-27 06:58:04 51°13.596 2°56.093 125.1 -999 204 -999
2007-11-27 06:58:08 51°13.596 2°56.093 125.1 -999 220 -999
2007-11-27 06:58:14 51°13.596 2°56.093 125.1 -999 205 -999
2007-11-27 06:58:19 51°13.596 2°56.093 125.1 -999 338 -999
2007-11-27 06:58:24 51°13.596 2°56.093 125.1 -999 256 -999
2007-11-27 06:58:29 51°13.596 2°56.092 125.1 -999 202 -999
2007-11-27 06:58:34 51°13.596 2°56.092 125.1 -999 347 -999
2007-11-27 06:58:39 51°13.596 2°56.092 125.1 -999 166 -999
2007-11-27 06:58:44 51°13.596 2°56.092 125.1 -999 135 -999
2007-11-27 06:58:49 51°13.596 2°56.092 125.1 -999 180 -999
2007-11-27 06:58:54 51°13.596 2°56.092 125.1 -999 291 -999
2007-11-27 06:58:59 51°13.596 2°56.092 125.1 -999 272 -999
2007-11-27 06:59:04 51°13.596 2°56.092 125.1 -999 342 -999
2007-11-27 06:59:09 51°13.596 2°56.092 125.1 -999 74 -999
2007-11-27 06:59:14 51°13.596 2°56.092 125.1 -999 210 -999
2007-11-27 06:59:18 51°13.596 2°56.093 125.1 -999 358 -999
2007-11-27 06:59:24 51°13.596 2°56.093 125.1 -999 306 -999
2007-11-27 06:59:29 51°13.596 2°56.093 125.1 -999 12 -999
2007-11-27 06:59:34 51°13.596 2°56.094 125.1 -999 191 -999
2007-11-27 06:59:39 51°13.597 2°56.094 125.1 -999 277 -999
2007-11-27 06:59:44 51°13.597 2°56.094 125.1 -999 290 -999
2007-11-27 06:59:49 51°13.597 2°56.093 125.1 -999 329 -999
2007-11-27 06:59:54 51°13.597 2°56.093 125.1 -999 320 -999
2007-11-27 06:59:59 51°13.597 2°56.093 125.1 -999 333 -999
2007-11-27 07:00:04 51°13.597 2°56.094 125.1 -999 195 -999
2007-11-27 07:00:09 51°13.597 2°56.094 125.1 -999 183 -999
2007-11-27 07:00:14 51°13.597 2°56.094 125.1 -999 183 -999
2007-11-27 07:00:19 51°13.597 2°56.094 125.1 -999 19 -999
2007-11-27 07:00:24 51°13.597 2°56.094 125.1 -999 326 -999
2007-11-27 07:00:29 51°13.597 2°56.094 125.1 -999 184 -999
2007-11-27 07:00:34 51°13.597 2°56.094 125.1 -999 141 -999
2007-11-27 07:00:39 51°13.597 2°56.094 125.1 -999 138 -999
2007-11-27 07:00:44 51°13.598 2°56.094 125.1 -999 288 -999
2007-11-27 07:00:49 51°13.598 2°56.094 125.1 -999 319 -999
2007-11-27 07:00:54 51°13.598 2°56.094 125.1 -999 347 -999
2007-11-27 07:00:59 51°13.598 2°56.094 125.1 -999 66 -999
2007-11-27 07:01:04 51°13.598 2°56.094 125.1 -999 156 -999
2007-11-27 07:01:08 51°13.598 2°56.093 125.1 -999 201 -999
2007-11-27 07:01:14 51°13.598 2°56.093 125.1 -999 181 -999
2007-11-27 07:01:19 51°13.598 2°56.094 125.1 -999 196 -999
2007-11-27 07:01:24 51°13.598 2°56.094 125.1 -999 217 -999
2007-11-27 07:01:29 51°13.598 2°56.093 125.1 -999 199 -999
2007-11-27 07:01:34 51°13.598 2°56.093 125.1 -999 293 -999
2007-11-27 07:01:39 51°13.598 2°56.093 125.1 -999 268 -999
2007-11-27 07:01:44 51°13.598 2°56.093 125.1 -999 342 -999
2007-11-27 07:01:47 51°13.598 2°56.093 125.1 -999 227 -999
2007-11-27 07:01:53 51°13.598 2°56.093 125.1 -999 5 -999
2007-11-27 07:01:59 51°13.598 2°56.093 125.1 -999 350 -999
2007-11-27 07:02:04 51°13.598 2°56.093 125.1 -999 280 -999
2007-11-27 07:02:09 51°13.598 2°56.093 125.1 -999 309 -999
2007-11-27 07:02:14 51°13.598 2°56.093 125.1 -999 292 -999
2007-11-27 07:02:19 51°13.598 2°56.093 125.1 -999 311 -999
2007-11-27 07:02:24 51°13.598 2°56.093 125.1 -999 206 -999
2007-11-27 07:02:29 51°13.598 2°56.093 125.1 -999 257 -999
2007-11-27 07:02:34 51°13.599 2°56.094 125.1 -999 327 -999
2007-11-27 07:02:39 51°13.599 2°56.094 125.1 -999 26 -999
2007-11-27 07:02:44 51°13.599 2°56.094 125.1 -999 350 -999
2007-11-27 07:02:48 51°13.598 2°56.094 125.1 -999 233 -999
2007-11-27 07:02:54 51°13.598 2°56.094 125.1 -999 190 -999
2007-11-27 07:02:58 51°13.598 2°56.094 125.1 -999 183 -999
2007-11-27 07:03:04 51°13.598 2°56.094 125.1 -999 342 -999
2007-11-27 07:03:09 51°13.598 2°56.093 125.1 -999 238 -999
2007-11-27 07:03:14 51°13.598 2°56.094 125.1 -999 270 -999
2007-11-27 07:03:19 51°13.598 2°56.094 125.1 -999 176 -999
2007-11-27 07:03:24 51°13.598 2°56.094 125.1 -999 356 -999
2007-11-27 07:03:29 51°13.598 2°56.094 125.1 -999 355 -999
2007-11-27 07:03:34 51°13.598 2°56.094 125.1 -999 149 -999
2007-11-27 07:03:38 51°13.598 2°56.094 125.1 -999 177 -999
2007-11-27 07:03:44 51°13.598 2°56.094 125.1 -999 329 -999
2007-11-27 07:03:48 51°13.598 2°56.095 125.1 -999 195 -999
2007-11-27 07:03:54 51°13.598 2°56.095 125.1 -999 342 -999
2007-11-27 07:03:58 51°13.598 2°56.096 125.1 -999 153 -999
2007-11-27 07:04:04 51°13.598 2°56.096 125.1 -999 318 -999
2007-11-27 07:04:08 51°13.599 2°56.096 125.1 -999 344 -999
2007-11-27 07:04:14 51°13.599 2°56.097 125.1 -999 184 -999
2007-11-27 07:04:19 51°13.598 2°56.095 125.1 -999 187 -999
2007-11-27 07:04:24 51°13.598 2°56.094 125.1 -999 243 -999
2007-11-27 07:04:29 51°13.598 2°56.094 125.1 -999 162 -999
2007-11-27 07:04:34 51°13.598 2°56.094 125.1 -999 212 -999
2007-11-27 07:04:39 51°13.598 2°56.094 125.1 -999 326 -999
2007-11-27 07:04:44 51°13.598 2°56.094 125.1 -999 178 -999
2007-11-27 07:04:49 51°13.598 2°56.094 125.1 -999 238 -999
2007-11-27 07:04:54 51°13.598 2°56.094 125.1 -999 206 -999
2007-11-27 07:04:59 51°13.598 2°56.094 125.1 -999 343 -999
2007-11-27 07:05:04 51°13.598 2°56.094 125.1 -999 7 -999
2007-11-27 07:05:09 51°13.598 2°56.094 125.1 -999 22 -999
2007-11-27 07:05:14 51°13.598 2°56.094 125.1 -999 193 -999
2007-11-27 07:05:18 51°13.598 2°56.094 125.1 -999 193 -999
2007-11-27 07:05:24 51°13.598 2°56.095 125.1 -999 172 -999
2007-11-27 07:05:28 51°13.598 2°56.095 125.1 -999 232 -999
2007-11-27 07:05:34 51°13.598 2°56.096 125.1 -999 191 -999
2007-11-27 07:05:38 51°13.598 2°56.096 125.1 -999 252 -999
2007-11-27 07:05:43 51°13.598 2°56.096 125.1 -999 221 -999
2007-11-27 07:05:48 51°13.598 2°56.096 125.1 -999 255 -999
2007-11-27 07:05:54 51°13.598 2°56.095 125.1 -999 347 -999
2007-11-27 07:05:59 51°13.598 2°56.095 125.1 -999 14 -999
2007-11-27 07:06:04 51°13.598 2°56.095 125.1 -999 205 -999
2007-11-27 07:06:09 51°13.598 2°56.095 125.1 -999 295 -999
2007-11-27 07:06:14 51°13.598 2°56.095 125.1 -999 51 -999
2007-11-27 07:06:19 51°13.598 2°56.095 125.1 -999 19 -999
2007-11-27 07:06:24 51°13.598 2°56.095 125.1 -999 234 -999
2007-11-27 07:06:29 51°13.598 2°56.095 125.1 -999 200 -999
2007-11-27 07:06:34 51°13.598 2°56.095 125.1 -999 219 -999
2007-11-27 07:06:39 51°13.598 2°56.095 125.1 -999 328 -999
2007-11-27 07:06:44 51°13.599 2°56.095 125.1 -999 316 -999
2007-11-27 07:06:49 51°13.599 2°56.095 125.1 -999 254 -999
2007-11-27 07:06:54 51°13.599 2°56.095 125.1 -999 288 -999
2007-11-27 07:06:59 51°13.599 2°56.094 125.1 -999 306 -999
2007-11-27 07:07:04 51°13.599 2°56.094 125.1 -999 307 -999
2007-11-27 07:07:08 51°13.599 2°56.094 125.1 -999 350 -999
2007-11-27 07:07:14 51°13.599 2°56.094 125.1 -999 312 -999
2007-11-27 07:07:19 51°13.599 2°56.094 125 -999 321 -999
2007-11-27 07:07:24 51°13.599 2°56.094 125 -999 259 -999
2007-11-27 07:07:29 51°13.599 2°56.094 125 -999 230 -999
2007-11-27 07:07:34 51°13.599 2°56.094 125 -999 352 -999
2007-11-27 07:07:39 51°13.599 2°56.094 125 -999 358 -999
2007-11-27 07:07:44 51°13.598 2°56.093 125 -999 37 -999
2007-11-27 07:07:49 51°13.598 2°56.092 125 -999 353 -999
2007-11-27 07:07:54 51°13.598 2°56.092 125 -999 306 -999
2007-11-27 07:07:59 51°13.598 2°56.092 125 -999 258 -999
2007-11-27 07:08:04 51°13.598 2°56.093 125 -999 246 -999
2007-11-27 07:08:09 51°13.598 2°56.092 125 -999 241 -999
2007-11-27 07:08:14 51°13.598 2°56.092 125 -999 277 -999
2007-11-27 07:08:19 51°13.598 2°56.092 125 -999 317 -999
2007-11-27 07:08:24 51°13.598 2°56.093 125 -999 19 -999
2007-11-27 07:08:29 51°13.598 2°56.093 124.9 -999 242 -999
2007-11-27 07:08:34 51°13.598 2°56.093 124.9 -999 245 -999
2007-11-27 07:08:39 51°13.598 2°56.093 124.9 -999 326 -999
2007-11-27 07:08:44 51°13.598 2°56.093 124.9 -999 260 -999
2007-11-27 07:08:49 51°13.598 2°56.093 124.9 -999 79 -999
2007-11-27 07:08:54 51°13.598 2°56.093 124.9 -999 246 -999
2007-11-27 07:08:59 51°13.598 2°56.093 124.9 -999 262 -999
2007-11-27 07:09:04 51°13.598 2°56.094 124.9 -999 239 -999
2007-11-27 07:09:09 51°13.598 2°56.094 124.9 -999 141 -999
2007-11-27 07:09:14 51°13.598 2°56.094 124.9 -999 53 -999
2007-11-27 07:09:19 51°13.598 2°56.095 124.9 -999 285 -999
2007-11-27 07:09:24 51°13.598 2°56.095 124.9 -999 46 -999
2007-11-27 07:09:29 51°13.598 2°56.095 124.9 -999 129 -999
2007-11-27 07:09:34 51°13.598 2°56.095 124.9 -999 124 -999
2007-11-27 07:09:39 51°13.598 2°56.096 124.9 -999 290 -999
2007-11-27 07:09:44 51°13.599 2°56.096 124.9 -999 223 -999
2007-11-27 07:09:49 51°13.599 2°56.096 124.9 -999 283 -999
2007-11-27 07:09:54 51°13.599 2°56.096 124.9 -999 140 -999
2007-11-27 07:09:59 51°13.599 2°56.096 124.9 -999 355 -999
2007-11-27 07:10:04 51°13.599 2°56.096 124.9 -999 331 -999
2007-11-27 07:10:09 51°13.598 2°56.096 124.9 -999 244 -999
2007-11-27 07:10:14 51°13.598 2°56.096 124.9 -999 38 -999
2007-11-27 07:10:19 51°13.598 2°56.096 124.9 -999 319 -999
2007-11-27 07:10:24 51°13.598 2°56.096 124.9 -999 247 -999
2007-11-27 07:10:29 51°13.598 2°56.096 124.9 -999 314 -999
2007-11-27 07:10:34 51°13.598 2°56.096 124.9 -999 359 -999
2007-11-27 07:10:39 51°13.598 2°56.096 124.9 -999 96 -999
2007-11-27 07:10:44 51°13.598 2°56.096 124.9 -999 308 -999
2007-11-27 07:10:49 51°13.598 2°56.096 124.9 -999 268 -999
2007-11-27 07:10:54 51°13.598 2°56.096 124.9 -999 122 -999
2007-11-27 07:10:59 51°13.598 2°56.096 124.9 -999 24 -999
2007-11-27 07:11:04 51°13.598 2°56.096 124.9 -999 305 -999
2007-11-27 07:11:09 51°13.598 2°56.096 124.9 -999 164 -999
2007-11-27 07:11:14 51°13.598 2°56.096 124.9 -999 319 -999
2007-11-27 07:11:19 51°13.598 2°56.096 124.9 -999 274 -999
2007-11-27 07:11:24 51°13.598 2°56.096 124.9 -999 251 -999
2007-11-27 07:11:29 51°13.598 2°56.097 124.9 -999 356 -999
2007-11-27 07:11:34 51°13.598 2°56.096 124.9 -999 247 -999
2007-11-27 07:11:39 51°13.598 2°56.096 124.9 -999 240 -999
2007-11-27 07:11:44 51°13.598 2°56.096 124.9 -999 243 -999
2007-11-27 07:11:49 51°13.598 2°56.096 124.9 -999 8 -999
2007-11-27 07:11:53 51°13.598 2°56.096 124.9 -999 243 -999
2007-11-27 07:11:59 51°13.598 2°56.096 124.9 -999 291 -999
2007-11-27 07:12:04 51°13.598 2°56.096 124.9 -999 296 -999
2007-11-27 07:12:09 51°13.598 2°56.096 124.9 -999 146 -999
2007-11-27 07:12:14 51°13.598 2°56.096 124.9 -999 217 -999
2007-11-27 07:12:19 51°13.598 2°56.096 124.9 -999 262 -999
2007-11-27 07:12:24 51°13.598 2°56.096 124.9 -999 278 -999
2007-11-27 07:12:29 51°13.598 2°56.095 124.8 -999 313 -999
2007-11-27 07:12:34 51°13.598 2°56.095 124.8 -999 217 -999
2007-11-27 07:12:39 51°13.598 2°56.095 124.8 -999 339 -999
2007-11-27 07:12:44 51°13.598 2°56.095 124.8 -999 105 -999
2007-11-27 07:12:49 51°13.598 2°56.095 124.8 -999 18 -999
2007-11-27 07:12:54 51°13.598 2°56.095 124.8 -999 141 -999
2007-11-27 07:12:59 51°13.598 2°56.095 124.8 -999 188 -999
2007-11-27 07:13:04 51°13.599 2°56.094 124.8 -999 296 -999
2007-11-27 07:13:09 51°13.599 2°56.094 124.8 -999 252 -999
2007-11-27 07:13:14 51°13.599 2°56.094 124.8 -999 258 -999
2007-11-27 07:13:19 51°13.6 2°56.094 124.8 -999 185 -999
2007-11-27 07:13:24 51°13.6 2°56.093 124.8 -999 356 -999
2007-11-27 07:13:29 51°13.6 2°56.093 124.8 -999 302 -999
2007-11-27 07:13:34 51°13.6 2°56.093 124.8 -999 239 -999
2007-11-27 07:13:39 51°13.6 2°56.093 124.8 -999 350 -999
2007-11-27 07:13:44 51°13.6 2°56.093 124.8 0.1 232 -999
2007-11-27 07:13:49 51°13.6 2°56.093 124.8 -999 246 -999
2007-11-27 07:13:54 51°13.6 2°56.093 124.8 -999 287 -999
2007-11-27 07:13:59 51°13.601 2°56.093 124.8 -999 121 -999
2007-11-27 07:14:04 51°13.6 2°56.094 124.8 -999 14 -999
2007-11-27 07:14:09 51°13.599 2°56.094 124.8 -999 54 -999
2007-11-27 07:14:14 51°13.599 2°56.094 124.8 -999 34 -999
2007-11-27 07:14:19 51°13.599 2°56.094 124.8 -999 312 -999
2007-11-27 07:14:24 51°13.599 2°56.094 124.8 -999 324 -999
2007-11-27 07:14:29 51°13.599 2°56.093 124.8 -999 321 -999
2007-11-27 07:14:34 51°13.599 2°56.093 124.8 -999 252 -999
2007-11-27 07:14:39 51°13.599 2°56.093 124.8 -999 10 -999
2007-11-27 07:14:44 51°13.599 2°56.093 124.8 -999 294 -999
2007-11-27 07:14:49 51°13.599 2°56.093 124.8 -999 258 -999
2007-11-27 07:14:54 51°13.599 2°56.093 124.8 -999 41 -999
2007-11-27 07:14:59 51°13.599 2°56.093 124.8 -999 69 -999
2007-11-27 07:15:04 51°13.599 2°56.093 124.8 -999 55 -999
2007-11-27 07:15:09 51°13.598 2°56.093 124.8 -999 265 -999
2007-11-27 07:15:14 51°13.598 2°56.093 124.8 -999 246 -999
2007-11-27 07:15:19 51°13.598 2°56.093 124.7 -999 263 -999
2007-11-27 07:15:24 51°13.598 2°56.094 124.7 -999 229 -999
2007-11-27 07:15:29 51°13.598 2°56.094 124.7 -999 265 -999
2007-11-27 07:15:34 51°13.598 2°56.094 124.7 -999 18 -999
2007-11-27 07:15:39 51°13.598 2°56.093 124.7 -999 36 -999
2007-11-27 07:15:44 51°13.598 2°56.093 124.7 -999 20 -999
2007-11-27 07:15:49 51°13.598 2°56.093 124.7 -999 283 -999
2007-11-27 07:15:54 51°13.598 2°56.094 124.7 -999 357 -999
2007-11-27 07:15:59 51°13.598 2°56.094 124.7 -999 214 -999
2007-11-27 07:16:04 51°13.598 2°56.094 124.7 -999 312 -999
2007-11-27 07:16:09 51°13.598 2°56.094 124.7 -999 120 -999
2007-11-27 07:16:14 51°13.598 2°56.094 124.7 -999 230 -999
2007-11-27 07:16:19 51°13.598 2°56.094 124.7 -999 337 -999
2007-11-27 07:16:24 51°13.598 2°56.094 124.7 -999 213 -999
2007-11-27 07:16:29 51°13.598 2°56.093 124.7 -999 15 -999
2007-11-27 07:16:34 51°13.598 2°56.094 124.7 -999 47 -999
2007-11-27 07:16:39 51°13.598 2°56.094 124.7 -999 18 -999
2007-11-27 07:16:44 51°13.598 2°56.094 124.7 -999 344 -999
2007-11-27 07:16:49 51°13.598 2°56.094 124.7 -999 50 -999
2007-11-27 07:16:54 51°13.598 2°56.094 124.7 -999 15 -999
2007-11-27 07:16:59 51°13.598 2°56.094 124.7 -999 269 -999
2007-11-27 07:17:04 51°13.598 2°56.094 124.7 -999 347 -999
2007-11-27 07:17:09 51°13.598 2°56.094 124.7 -999 274 -999
2007-11-27 07:17:14 51°13.598 2°56.094 124.7 -999 32 -999
2007-11-27 07:17:19 51°13.598 2°56.094 124.7 -999 6 -999
2007-11-27 07:17:24 51°13.598 2°56.094 124.7 -999 16 -999
2007-11-27 07:17:29 51°13.598 2°56.094 124.7 -999 252 -999
2007-11-27 07:17:34 51°13.598 2°56.094 124.7 -999 141 -999
2007-11-27 07:17:39 51°13.598 2°56.094 124.7 -999 224 -999
2007-11-27 07:17:44 51°13.598 2°56.094 124.7 -999 21 -999
2007-11-27 07:17:49 51°13.598 2°56.094 124.7 -999 331 -999
2007-11-27 07:17:54 51°13.598 2°56.094 124.7 -999 240 -999
2007-11-27 07:17:59 51°13.598 2°56.094 124.7 -999 178 -999
2007-11-27 07:18:04 51°13.598 2°56.094 124.6 -999 342 -999
2007-11-27 07:18:09 51°13.598 2°56.094 124.6 -999 131 -999
2007-11-27 07:18:14 51°13.598 2°56.094 124.6 -999 25 -999
2007-11-27 07:18:19 51°13.598 2°56.094 124.6 -999 78 -999
2007-11-27 07:18:24 51°13.598 2°56.094 124.6 -999 209 -999
2007-11-27 07:18:29 51°13.598 2°56.094 124.6 -999 328 -999
2007-11-27 07:18:34 51°13.598 2°56.094 124.6 -999 53 -999
2007-11-27 07:18:39 51°13.598 2°56.094 124.6 -999 31 -999
2007-11-27 07:18:44 51°13.598 2°56.094 124.6 -999 205 -999
2007-11-27 07:18:49 51°13.598 2°56.094 124.6 -999 332 -999
2007-11-27 07:18:54 51°13.598 2°56.094 124.6 -999 350 -999
2007-11-27 07:18:59 51°13.598 2°56.094 124.6 -999 28 -999
2007-11-27 07:19:04 51°13.598 2°56.094 124.6 -999 148 -999
2007-11-27 07:19:09 51°13.598 2°56.094 124.6 -999 308 -999
2007-11-27 07:19:14 51°13.598 2°56.094 124.6 -999 37 -999
2007-11-27 07:19:19 51°13.598 2°56.095 124.6 -999 20 -999
2007-11-27 07:19:24 51°13.598 2°56.095 124.6 -999 28 -999
2007-11-27 07:19:29 51°13.597 2°56.095 124.6 -999 191 -999
2007-11-27 07:19:34 51°13.597 2°56.095 124.6 -999 119 -999
2007-11-27 07:19:39 51°13.597 2°56.095 124.6 -999 235 -999
2007-11-27 07:19:44 51°13.597 2°56.095 124.6 -999 347 -999
2007-11-27 07:19:49 51°13.597 2°56.095 124.6 -999 15 -999
2007-11-27 07:19:54 51°13.597 2°56.095 124.6 -999 84 -999
2007-11-27 07:19:59 51°13.597 2°56.095 124.6 -999 176 -999
2007-11-27 07:20:04 51°13.597 2°56.095 124.6 -999 71 -999
2007-11-27 07:20:09 51°13.597 2°56.095 124.6 -999 224 -999
2007-11-27 07:20:14 51°13.597 2°56.095 124.6 -999 345 -999
2007-11-27 07:20:19 51°13.597 2°56.095 124.6 -999 296 -999
2007-11-27 07:20:24 51°13.597 2°56.095 124.6 -999 347 -999
2007-11-27 07:20:29 51°13.597 2°56.095 124.6 -999 287 -999
2007-11-27 07:20:34 51°13.597 2°56.095 124.6 -999 23 -999
2007-11-27 07:20:39 51°13.597 2°56.095 124.6 -999 100 -999
2007-11-27 07:20:44 51°13.597 2°56.095 124.6 -999 213 -999
2007-11-27 07:20:49 51°13.597 2°56.095 124.6 0.1 11 -999
2007-11-27 07:20:54 51°13.597 2°56.095 124.6 -999 357 -999
2007-11-27 07:20:59 51°13.597 2°56.095 124.6 -999 19 -999
2007-11-27 07:21:04 51°13.597 2°56.095 124.6 -999 151 -999
2007-11-27 07:21:09 51°13.597 2°56.095 124.6 -999 215 -999
2007-11-27 07:21:14 51°13.598 2°56.095 124.6 -999 171 -999
2007-11-27 07:21:19 51°13.598 2°56.095 124.6 -999 250 -999
2007-11-27 07:21:24 51°13.598 2°56.095 124.6 -999 269 -999
2007-11-27 07:21:29 51°13.598 2°56.095 124.6 -999 5 -999
2007-11-27 07:21:34 51°13.598 2°56.095 124.6 -999 222 -999
2007-11-27 07:21:39 51°13.598 2°56.095 124.6 -999 106 -999
2007-11-27 07:21:44 51°13.598 2°56.095 124.6 -999 45 -999
2007-11-27 07:21:49 51°13.598 2°56.095 124.6 -999 272 -999
2007-11-27 07:21:54 51°13.598 2°56.095 124.6 -999 338 -999
2007-11-27 07:21:59 51°13.598 2°56.095 124.6 -999 343 -999
2007-11-27 07:22:04 51°13.598 2°56.095 124.6 -999 217 -999
2007-11-27 07:22:09 51°13.598 2°56.095 124.6 -999 82 -999
2007-11-27 07:22:14 51°13.598 2°56.095 124.6 -999 18 -999
2007-11-27 07:22:19 51°13.598 2°56.095 124.6 -999 355 -999
2007-11-27 07:22:24 51°13.598 2°56.095 124.6 -999 328 -999
2007-11-27 07:22:29 51°13.598 2°56.095 124.6 -999 23 -999
2007-11-27 07:22:34 51°13.598 2°56.095 124.6 -999 253 -999
2007-11-27 07:22:39 51°13.598 2°56.095 124.6 -999 181 -999
2007-11-27 07:22:44 51°13.598 2°56.095 124.6 -999 323 -999
2007-11-27 07:22:49 51°13.598 2°56.095 124.6 -999 232 -999
2007-11-27 07:22:54 51°13.598 2°56.095 124.6 -999 12 -999
2007-11-27 07:22:59 51°13.598 2°56.095 124.6 -999 219 -999
2007-11-27 07:23:04 51°13.598 2°56.095 124.6 -999 199 -999
2007-11-27 07:23:09 51°13.598 2°56.094 124.6 -999 76 -999
2007-11-27 07:23:14 51°13.598 2°56.094 124.6 -999 315 -999
2007-11-27 07:23:19 51°13.597 2°56.094 124.6 -999 3 -999
2007-11-27 07:23:24 51°13.597 2°56.094 124.6 -999 201 -999
2007-11-27 07:23:29 51°13.598 2°56.095 124.6 -999 234 -999
2007-11-27 07:23:34 51°13.598 2°56.095 124.6 -999 197 -999
2007-11-27 07:23:39 51°13.598 2°56.095 124.6 -999 220 -999
2007-11-27 07:23:44 51°13.598 2°56.095 124.6 -999 189 -999
2007-11-27 07:23:49 51°13.598 2°56.095 124.6 0.1 5 -999
2007-11-27 07:23:54 51°13.598 2°56.095 124.6 -999 334 -999
2007-11-27 07:23:59 51°13.598 2°56.095 124.6 -999 332 -999
2007-11-27 07:24:04 51°13.598 2°56.095 124.6 -999 27 -999
2007-11-27 07:24:09 51°13.599 2°56.095 124.6 -999 157 -999
2007-11-27 07:24:14 51°13.599 2°56.096 124.6 -999 16 -999
2007-11-27 07:24:19 51°13.599 2°56.096 124.6 -999 200 -999
2007-11-27 07:24:24 51°13.599 2°56.096 124.6 -999 194 -999
2007-11-27 07:24:29 51°13.599 2°56.096 124.6 -999 196 -999
2007-11-27 07:24:34 51°13.599 2°56.096 124.6 -999 10 -999
2007-11-27 07:24:39 51°13.599 2°56.096 124.6 -999 186 -999
2007-11-27 07:24:44 51°13.599 2°56.096 124.6 -999 237 -999
2007-11-27 07:24:49 51°13.599 2°56.096 124.6 -999 182 -999
2007-11-27 07:24:54 51°13.599 2°56.096 124.6 -999 209 -999
2007-11-27 07:24:59 51°13.599 2°56.096 124.6 -999 353 -999
2007-11-27 07:25:04 51°13.599 2°56.096 124.6 -999 212 -999
2007-11-27 07:25:09 51°13.599 2°56.097 124.6 -999 179 -999
2007-11-27 07:25:14 51°13.599 2°56.097 124.6 -999 99 -999
2007-11-27 07:25:19 51°13.599 2°56.097 124.6 -999 178 -999
2007-11-27 07:25:24 51°13.599 2°56.097 124.6 -999 153 -999
2007-11-27 07:25:29 51°13.6 2°56.097 124.6 -999 156 -999
2007-11-27 07:25:34 51°13.6 2°56.097 124.6 -999 333 -999
2007-11-27 07:25:39 51°13.6 2°56.097 124.6 -999 317 -999
2007-11-27 07:25:44 51°13.599 2°56.097 124.6 -999 315 -999
2007-11-27 07:25:49 51°13.6 2°56.097 124.6 -999 4 -999
2007-11-27 07:25:54 51°13.6 2°56.097 124.6 -999 335 -999
2007-11-27 07:25:59 51°13.6 2°56.097 124.6 -999 348 -999
2007-11-27 07:26:04 51°13.6 2°56.097 124.6 -999 327 -999
2007-11-27 07:26:09 51°13.6 2°56.097 124.6 -999 6 -999
2007-11-27 07:26:14 51°13.6 2°56.097 124.6 -999 56 -999
2007-11-27 07:26:19 51°13.6 2°56.097 124.6 -999 193 -999
2007-11-27 07:26:24 51°13.6 2°56.097 124.6 -999 222 -999
2007-11-27 07:26:29 51°13.6 2°56.097 -999 -999 2 -999
2007-11-27 07:26:34 51°13.6 2°56.097 124.6 -999 189 -999
2007-11-27 07:26:39 51°13.6 2°56.097 124.6 -999 200 -999
2007-11-27 07:26:44 51°13.6 2°56.097 124.6 -999 108 -999
2007-11-27 07:26:49 51°13.6 2°56.096 124.6 -999 347 -999
2007-11-27 07:26:54 51°13.6 2°56.096 124.6 -999 356 -999
2007-11-27 07:26:59 51°13.6 2°56.096 124.6 -999 222 -999
2007-11-27 07:27:04 51°13.6 2°56.096 124.6 -999 296 -999
2007-11-27 07:27:09 51°13.6 2°56.096 124.6 -999 322 -999
2007-11-27 07:27:14 51°13.6 2°56.096 124.5 -999 60 -999
2007-11-27 07:27:19 51°13.6 2°56.096 124.5 -999 353 -999
2007-11-27 07:27:24 51°13.6 2°56.096 124.5 -999 351 -999
2007-11-27 07:27:29 51°13.6 2°56.096 124.5 -999 322 -999
2007-11-27 07:27:34 51°13.6 2°56.096 124.5 -999 172 -999
2007-11-27 07:27:39 51°13.6 2°56.096 124.5 -999 34 -999
2007-11-27 07:27:44 51°13.6 2°56.095 124.5 -999 319 -999
2007-11-27 07:27:49 51°13.6 2°56.095 124.5 -999 332 -999
2007-11-27 07:27:54 51°13.6 2°56.095 124.5 -999 356 -999
2007-11-27 07:27:59 51°13.6 2°56.095 124.5 -999 16 -999
2007-11-27 07:28:04 51°13.6 2°56.095 124.5 -999 25 -999
2007-11-27 07:28:09 51°13.6 2°56.095 124.5 -999 347 -999
2007-11-27 07:28:14 51°13.6 2°56.095 124.5 -999 296 -999
2007-11-27 07:28:19 51°13.6 2°56.095 124.5 -999 309 -999
2007-11-27 07:28:24 51°13.601 2°56.095 124.5 -999 151 -999
2007-11-27 07:28:29 51°13.601 2°56.095 124.5 -999 133 -999
2007-11-27 07:28:34 51°13.601 2°56.095 124.5 -999 160 -999
2007-11-27 07:28:39 51°13.601 2°56.095 124.5 -999 161 -999
2007-11-27 07:28:44 51°13.601 2°56.095 124.5 -999 293 -999
2007-11-27 07:28:49 51°13.601 2°56.095 124.5 -999 339 -999
2007-11-27 07:28:54 51°13.6 2°56.095 124.5 -999 169 -999
2007-11-27 07:28:59 51°13.6 2°56.095 124.5 -999 150 -999
2007-11-27 07:29:04 51°13.6 2°56.095 124.5 -999 187 -999
2007-11-27 07:29:09 51°13.6 2°56.094 124.5 -999 175 -999
2007-11-27 07:29:14 51°13.6 2°56.094 124.5 -999 352 -999
2007-11-27 07:29:19 51°13.6 2°56.094 124.5 -999 256 -999
2007-11-27 07:29:24 51°13.6 2°56.094 124.5 -999 353 -999
2007-11-27 07:29:29 51°13.6 2°56.094 124.5 -999 332 -999
2007-11-27 07:29:34 51°13.6 2°56.094 124.5 -999 333 -999
2007-11-27 07:29:39 51°13.6 2°56.094 124.5 -999 353 -999
2007-11-27 07:29:44 51°13.6 2°56.094 124.5 -999 305 -999
2007-11-27 07:29:49 51°13.6 2°56.094 124.5 -999 311 -999
2007-11-27 07:29:54 51°13.599 2°56.094 124.5 -999 220 -999
2007-11-27 07:29:59 51°13.599 2°56.094 124.5 -999 31 -999
2007-11-27 07:30:04 51°13.599 2°56.094 124.5 -999 162 6.2
2007-11-27 07:30:09 51°13.599 2°56.094 124.5 -999 153 6.2
2007-11-27 07:30:14 51°13.599 2°56.094 124.5 -999 102 6.2
2007-11-27 07:30:19 51°13.599 2°56.094 124.5 -999 267 6.2
2007-11-27 07:30:24 51°13.599 2°56.094 124.5 -999 350 6.2
2007-11-27 07:30:29 51°13.599 2°56.094 124.5 -999 350 6.2
2007-11-27 07:30:34 51°13.599 2°56.094 124.5 -999 328 6.2
2007-11-27 07:30:39 51°13.599 2°56.094 124.5 -999 340 6.2
2007-11-27 07:30:44 51°13.599 2°56.094 124.5 -999 68 6.2
2007-11-27 07:30:49 51°13.599 2°56.094 124.5 -999 359 6.2
2007-11-27 07:30:54 51°13.599 2°56.094 124.5 -999 331 6.2
2007-11-27 07:30:59 51°13.599 2°56.094 124.5 -999 342 6.2
2007-11-27 07:31:04 51°13.599 2°56.094 124.5 -999 55 6.2
2007-11-27 07:31:09 51°13.599 2°56.094 124.5 -999 206 6.2
2007-11-27 07:31:14 51°13.599 2°56.094 124.5 -999 180 6.2
2007-11-27 07:31:19 51°13.599 2°56.094 124.5 -999 207 6.2
2007-11-27 07:31:24 51°13.599 2°56.094 124.5 -999 198 6.2
2007-11-27 07:31:29 51°13.599 2°56.094 124.5 -999 325 6.2
2007-11-27 07:31:34 51°13.599 2°56.094 124.5 -999 348 6.2
2007-11-27 07:31:39 51°13.599 2°56.094 124.5 -999 131 6.2
2007-11-27 07:31:44 51°13.599 2°56.094 124.5 -999 151 6.2
2007-11-27 07:31:49 51°13.599 2°56.094 124.5 -999 195 6.1
2007-11-27 07:31:54 51°13.599 2°56.094 124.5 -999 11 6.1
2007-11-27 07:31:59 51°13.599 2°56.094 124.5 -999 178 6.1
2007-11-27 07:32:04 51°13.599 2°56.094 124.5 -999 316 6.2
2007-11-27 07:32:09 51°13.599 2°56.094 124.5 -999 5 6.2
2007-11-27 07:32:14 51°13.599 2°56.095 124.5 -999 1 6.2
2007-11-27 07:32:19 51°13.599 2°56.095 124.5 -999 186 6.2
2007-11-27 07:32:24 51°13.599 2°56.095 124.5 -999 138 6.2
2007-11-27 07:32:29 51°13.599 2°56.095 124.5 -999 159 6.2
2007-11-27 07:32:34 51°13.599 2°56.095 124.5 -999 307 6.2
2007-11-27 07:32:39 51°13.599 2°56.095 124.5 -999 316 6.2
2007-11-27 07:32:44 51°13.599 2°56.095 124.5 -999 314 6.2
2007-11-27 07:32:49 51°13.599 2°56.095 124.5 -999 10 6.2
2007-11-27 07:32:54 51°13.599 2°56.095 124.5 -999 172 6.2
2007-11-27 07:32:59 51°13.599 2°56.095 124.5 -999 126 6.2
2007-11-27 07:33:04 51°13.599 2°56.095 124.5 -999 358 6.2
2007-11-27 07:33:09 51°13.599 2°56.095 124.5 -999 159 6.2
2007-11-27 07:33:14 51°13.599 2°56.095 124.5 -999 164 6.2
2007-11-27 07:33:19 51°13.599 2°56.095 124.5 -999 150 6.2
2007-11-27 07:33:24 51°13.6 2°56.095 124.5 -999 184 6.2
2007-11-27 07:33:29 51°13.6 2°56.095 124.5 -999 84 6.2
2007-11-27 07:33:34 51°13.6 2°56.096 124.5 -999 128 6.2
2007-11-27 07:33:39 51°13.6 2°56.096 124.5 -999 258 6.2
2007-11-27 07:33:44 51°13.601 2°56.096 124.5 -999 341 6.2
2007-11-27 07:33:49 51°13.601 2°56.096 124.6 -999 7 6.1
2007-11-27 07:33:54 51°13.601 2°56.096 124.6 -999 178 6.1
2007-11-27 07:33:59 51°13.601 2°56.096 124.6 -999 28 6.2
2007-11-27 07:34:04 51°13.601 2°56.096 124.6 -999 296 6.1
2007-11-27 07:34:09 51°13.601 2°56.095 124.6 -999 355 6.2
2007-11-27 07:34:14 51°13.601 2°56.095 124.6 -999 6 6.2
2007-11-27 07:34:19 51°13.601 2°56.096 124.6 -999 135 6.1
2007-11-27 07:34:24 51°13.601 2°56.096 124.6 -999 114 6.2
2007-11-27 07:34:29 51°13.601 2°56.095 124.6 -999 221 6.2
2007-11-27 07:34:34 51°13.601 2°56.095 124.6 -999 338 6.1
2007-11-27 07:34:39 51°13.601 2°56.095 124.6 -999 4 6.2
2007-11-27 07:34:44 51°13.6 2°56.095 124.6 -999 188 6.2
2007-11-27 07:34:49 51°13.6 2°56.095 124.6 -999 354 6.2
2007-11-27 07:34:54 51°13.6 2°56.095 124.6 -999 284 6.2
2007-11-27 07:34:59 51°13.6 2°56.095 124.6 -999 122 6.2
2007-11-27 07:35:04 51°13.6 2°56.095 124.6 -999 141 6.2
2007-11-27 07:35:09 51°13.599 2°56.095 124.6 -999 1 6.2
2007-11-27 07:35:14 51°13.599 2°56.095 124.6 -999 354 6.2
2007-11-27 07:35:19 51°13.599 2°56.095 124.6 -999 145 6.2
2007-11-27 07:35:24 51°13.599 2°56.095 124.6 -999 12 6.2
2007-11-27 07:35:29 51°13.599 2°56.095 124.6 -999 353 6.2
2007-11-27 07:35:34 51°13.599 2°56.094 124.6 -999 322 6.2
2007-11-27 07:35:39 51°13.599 2°56.094 124.6 -999 302 6.1
2007-11-27 07:35:44 51°13.599 2°56.095 124.6 -999 88 6.2
2007-11-27 07:35:49 51°13.599 2°56.094 124.6 -999 200 6.1
2007-11-27 07:35:54 51°13.599 2°56.094 124.6 -999 236 6.2
2007-11-27 07:35:59 51°13.599 2°56.094 124.6 -999 241 6.1
2007-11-27 07:36:04 51°13.599 2°56.094 124.6 -999 158 6.2
2007-11-27 07:36:09 51°13.599 2°56.094 124.6 -999 163 6.2
2007-11-27 07:36:14 51°13.599 2°56.094 124.6 -999 204 6.2
2007-11-27 07:36:19 51°13.599 2°56.094 124.6 -999 345 6.2
2007-11-27 07:36:24 51°13.599 2°56.094 124.6 -999 340 6.2
2007-11-27 07:36:29 51°13.599 2°56.094 124.6 -999 33 6.2
2007-11-27 07:36:34 51°13.599 2°56.094 124.6 -999 7 6.2
2007-11-27 07:36:39 51°13.599 2°56.094 124.6 -999 180 6.2
2007-11-27 07:36:44 51°13.599 2°56.094 124.6 -999 343 6.1
2007-11-27 07:36:49 51°13.599 2°56.094 124.6 -999 332 6.1
2007-11-27 07:36:54 51°13.599 2°56.094 124.6 -999 -999 6.1
2007-11-27 07:36:59 51°13.599 2°56.094 124.6 -999 185 6.1
2007-11-27 07:37:04 51°13.599 2°56.094 124.6 -999 332 6.1
2007-11-27 07:37:09 51°13.599 2°56.094 124.6 -999 299 6.1
2007-11-27 07:37:14 51°13.599 2°56.094 124.6 -999 103 6.2
2007-11-27 07:37:19 51°13.599 2°56.094 124.6 -999 132 6.1
2007-11-27 07:37:24 51°13.599 2°56.094 124.6 -999 17 6.2
2007-11-27 07:37:29 51°13.599 2°56.094 124.6 -999 358 6.2
2007-11-27 07:37:34 51°13.599 2°56.094 124.6 -999 209 6.2
2007-11-27 07:37:39 51°13.599 2°56.094 124.6 -999 335 6.2
2007-11-27 07:37:44 51°13.599 2°56.094 124.6 -999 11 6.2
2007-11-27 07:37:49 51°13.599 2°56.094 124.6 -999 60 6.2
2007-11-27 07:37:54 51°13.599 2°56.094 124.6 -999 182 6.1
2007-11-27 07:37:59 51°13.599 2°56.095 124.6 -999 41 6.1
2007-11-27 07:38:04 51°13.599 2°56.094 124.6 -999 102 6.2
2007-11-27 07:38:09 51°13.599 2°56.094 124.6 -999 304 6.1
2007-11-27 07:38:14 51°13.599 2°56.094 124.6 -999 347 6.1
2007-11-27 07:38:19 51°13.599 2°56.094 124.6 -999 331 6.1
2007-11-27 07:38:24 51°13.599 2°56.094 124.6 -999 287 6.1
2007-11-27 07:38:29 51°13.599 2°56.094 124.6 -999 316 6.2
2007-11-27 07:38:34 51°13.599 2°56.094 124.6 -999 313 6.2
2007-11-27 07:38:39 51°13.599 2°56.094 124.6 -999 88 6.1
2007-11-27 07:38:44 51°13.599 2°56.094 124.6 -999 242 6.2
2007-11-27 07:38:49 51°13.599 2°56.094 124.6 -999 321 6.1
2007-11-27 07:38:54 51°13.599 2°56.094 124.6 -999 323 6.2
2007-11-27 07:38:59 51°13.599 2°56.094 124.6 -999 350 6.2
2007-11-27 07:39:04 51°13.599 2°56.094 124.6 -999 356 6.2
2007-11-27 07:39:09 51°13.599 2°56.094 124.6 -999 143 6.2
2007-11-27 07:39:14 51°13.599 2°56.094 124.6 -999 202 6.1
2007-11-27 07:39:19 51°13.599 2°56.094 124.6 -999 318 6.1
2007-11-27 07:39:24 51°13.599 2°56.094 124.6 -999 339 6.2
2007-11-27 07:39:29 51°13.599 2°56.094 124.6 -999 43 6.2
2007-11-27 07:39:34 51°13.599 2°56.094 124.6 -999 129 6.1
2007-11-27 07:39:39 51°13.599 2°56.094 124.6 -999 74 6.1
2007-11-27 07:39:44 51°13.599 2°56.094 124.6 -999 208 6.2
2007-11-27 07:39:49 51°13.599 2°56.094 124.6 -999 258 6.1
2007-11-27 07:39:54 51°13.599 2°56.094 124.6 -999 272 6.1
2007-11-27 07:39:59 51°13.599 2°56.094 124.6 -999 153 6.2
2007-11-27 07:40:04 51°13.599 2°56.094 124.6 -999 104 6.1
2007-11-27 07:40:09 51°13.599 2°56.094 124.6 -999 259 6.1
2007-11-27 07:40:14 51°13.599 2°56.094 124.6 -999 51 6.1
2007-11-27 07:40:19 51°13.599 2°56.094 124.6 -999 179 6.1
2007-11-27 07:40:24 51°13.599 2°56.094 124.6 -999 94 6.2
2007-11-27 07:40:29 51°13.599 2°56.094 124.6 -999 2 6.2
2007-11-27 07:40:34 51°13.599 2°56.094 124.6 -999 166 6.2
2007-11-27 07:40:39 51°13.599 2°56.094 124.6 -999 356 6.2
2007-11-27 07:40:44 51°13.599 2°56.094 124.6 -999 350 6.2
2007-11-27 07:40:49 51°13.599 2°56.095 124.6 -999 353 6.2
2007-11-27 07:40:54 51°13.599 2°56.095 124.6 -999 17 6.2
2007-11-27 07:40:59 51°13.599 2°56.095 124.6 -999 146 6.2
2007-11-27 07:41:04 51°13.599 2°56.095 124.6 -999 88 6.2
2007-11-27 07:41:09 51°13.599 2°56.095 124.6 -999 170 6.1
2007-11-27 07:41:14 51°13.599 2°56.095 124.6 -999 97 6.2
2007-11-27 07:41:19 51°13.599 2°56.094 124.6 -999 156 6.2
2007-11-27 07:41:24 51°13.599 2°56.094 124.6 -999 179 6.1
2007-11-27 07:41:29 51°13.599 2°56.094 124.6 -999 147 6.2
2007-11-27 07:41:34 51°13.599 2°56.094 124.6 -999 146 6.1
2007-11-27 07:41:39 51°13.598 2°56.094 124.6 -999 98 6.2
2007-11-27 07:41:44 51°13.599 2°56.094 124.6 -999 329 6.1
2007-11-27 07:41:49 51°13.599 2°56.094 124.6 -999 168 6.1
2007-11-27 07:41:54 51°13.599 2°56.094 124.6 -999 268 6.1
2007-11-27 07:41:59 51°13.599 2°56.094 124.6 -999 6 6.1
2007-11-27 07:42:04 51°13.599 2°56.094 124.6 -999 208 6.1
2007-11-27 07:42:09 51°13.599 2°56.094 124.6 -999 263 6.2
2007-11-27 07:42:14 51°13.599 2°56.094 124.6 -999 347 6.2
2007-11-27 07:42:19 51°13.599 2°56.094 124.6 -999 355 6.2
2007-11-27 07:42:24 51°13.599 2°56.094 124.6 -999 144 6.2
2007-11-27 07:42:29 51°13.599 2°56.094 124.6 -999 62 6.1
2007-11-27 07:42:34 51°13.599 2°56.094 124.6 -999 101 6.2
2007-11-27 07:42:39 51°13.599 2°56.094 124.6 -999 99 6.2
2007-11-27 07:42:44 51°13.599 2°56.094 124.6 -999 181 6.1
2007-11-27 07:42:49 51°13.599 2°56.094 124.6 -999 167 6.1
2007-11-27 07:42:54 51°13.599 2°56.094 124.6 -999 87 6.1
2007-11-27 07:42:59 51°13.599 2°56.094 124.6 -999 349 6.1
2007-11-27 07:43:04 51°13.599 2°56.094 124.6 -999 181 6.1
2007-11-27 07:43:09 51°13.599 2°56.094 124.6 -999 194 6.1
2007-11-27 07:43:14 51°13.599 2°56.094 124.6 -999 213 6.1
2007-11-27 07:43:19 51°13.599 2°56.094 124.6 -999 86 6.1
2007-11-27 07:43:24 51°13.599 2°56.094 124.6 -999 182 6.1
2007-11-27 07:43:29 51°13.599 2°56.094 124.6 -999 154 6.1
2007-11-27 07:43:34 51°13.599 2°56.094 124.6 -999 186 6.1
2007-11-27 07:43:39 51°13.599 2°56.094 124.6 -999 226 6.1
2007-11-27 07:43:44 51°13.599 2°56.094 124.6 -999 173 6.1
2007-11-27 07:43:49 51°13.599 2°56.094 124.6 0.1 186 6.1
2007-11-27 07:43:54 51°13.599 2°56.094 124.6 0.1 232 6.2
2007-11-27 07:43:59 51°13.599 2°56.094 124.6 -999 227 6.1
2007-11-27 07:44:04 51°13.599 2°56.094 124.9 -999 213 6.1
2007-11-27 07:44:09 51°13.599 2°56.094 125.3 -999 179 6.1
2007-11-27 07:44:14 51°13.599 2°56.094 125.4 -999 150 6.1
2007-11-27 07:44:19 51°13.599 2°56.094 125.5 -999 88 6.2
2007-11-27 07:44:24 51°13.599 2°56.094 125.5 -999 158 6.2
2007-11-27 07:44:29 51°13.599 2°56.094 125.5 -999 317 6.1
2007-11-27 07:44:34 51°13.599 2°56.094 125.5 -999 197 6.1
2007-11-27 07:44:39 51°13.599 2°56.094 125.5 -999 175 6.2
2007-11-27 07:44:44 51°13.599 2°56.094 125.5 0.1 190 6.2
2007-11-27 07:44:49 51°13.599 2°56.094 125.5 -999 164 6.1
2007-11-27 07:44:54 51°13.599 2°56.094 125.6 0.1 154 6.1
2007-11-27 07:44:59 51°13.599 2°56.094 125.7 0.1 128 6.2
2007-11-27 07:45:04 51°13.599 2°56.094 125.7 0.1 109 6.2
2007-11-27 07:45:09 51°13.598 2°56.094 125.7 0.1 111 6.1
2007-11-27 07:45:14 51°13.599 2°56.094 125.5 0.1 95 6.1
2007-11-27 07:45:19 51°13.599 2°56.095 124.6 0.1 85 6.1
2007-11-27 07:45:24 51°13.599 2°56.095 123.5 -999 188 -999
2007-11-27 07:45:29 51°13.598 2°56.095 122.4 -999 174 6.1
2007-11-27 07:45:34 51°13.598 2°56.095 121.5 0.1 197 6.1
2007-11-27 07:45:39 51°13.598 2°56.095 120.9 -999 198 6.1
2007-11-27 07:45:44 51°13.598 2°56.095 120.4 0.1 184 6.1
2007-11-27 07:45:49 51°13.598 2°56.095 119.6 -999 186 6.1
2007-11-27 07:45:54 51°13.598 2°56.095 119 0.1 188 -999
2007-11-27 07:45:59 51°13.598 2°56.095 118.6 -999 165 -999
2007-11-27 07:46:04 51°13.598 2°56.095 118.1 0.1 172 6.1
2007-11-27 07:46:09 51°13.598 2°56.095 117.5 0.1 181 6.1
2007-11-27 07:46:14 51°13.598 2°56.095 116.8 0.1 173 6.1
2007-11-27 07:46:19 51°13.598 2°56.095 116 0.1 173 6.1
2007-11-27 07:46:24 51°13.598 2°56.095 115.2 0.1 183 6.1
2007-11-27 07:46:29 51°13.598 2°56.095 114.4 0.1 191 6.1
2007-11-27 07:46:34 51°13.597 2°56.095 113.4 -999 250 6.1
2007-11-27 07:46:39 51°13.597 2°56.095 112.5 0.2 276 6.1
2007-11-27 07:46:44 51°13.598 2°56.094 112 0.3 286 6.1
2007-11-27 07:46:49 51°13.598 2°56.093 111.7 0.4 289 6.1
2007-11-27 07:46:54 51°13.598 2°56.092 111.4 0.7 294 6.2
2007-11-27 07:46:59 51°13.599 2°56.09 111.1 0.9 293 6.2
2007-11-27 07:47:04 51°13.6 2°56.087 111 1.3 292 6.2
2007-11-27 07:47:09 51°13.601 2°56.083 110.9 1.7 291 6.2
2007-11-27 07:47:14 51°13.602 2°56.079 110.9 2.3 291 -999
2007-11-27 07:47:19 51°13.603 2°56.073 110.9 2.6 291 -999
2007-11-27 07:47:24 51°13.604 2°56.067 111.2 2.9 291 -999
2007-11-27 07:47:29 51°13.606 2°56.061 111.6 3.2 291 -999
2007-11-27 07:47:34 51°13.608 2°56.053 112 3.4 290 -999
2007-11-27 07:47:39 51°13.609 2°56.046 112.3 3.7 290 -999
2007-11-27 07:47:44 51°13.611 2°56.037 112.7 3.9 291 -999
2007-11-27 07:47:49 51°13.613 2°56.029 113.4 4.1 291 -999
2007-11-27 07:47:54 51°13.616 2°56.02 114.3 4.3 292 -999
2007-11-27 07:47:59 51°13.618 2°56.011 115.3 4.5 293 -999
2007-11-27 07:48:04 51°13.621 2°56.002 116.5 4.6 294 -999
2007-11-27 07:48:09 51°13.624 2°55.992 117.3 4.7 296 -999
2007-11-27 07:48:14 51°13.627 2°55.983 117.9 4.8 296 -999
2007-11-27 07:48:19 51°13.63 2°55.973 118.5 4.9 297 -999
2007-11-27 07:48:24 51°13.633 2°55.964 118.7 5 297 -999
2007-11-27 07:48:29 51°13.636 2°55.954 119 5.1 298 -999
2007-11-27 07:48:34 51°13.64 2°55.944 119.4 5.2 298 -999
2007-11-27 07:48:39 51°13.643 2°55.934 119.7 5.3 298 -999
2007-11-27 07:48:44 51°13.647 2°55.923 120 5.3 298 -999
2007-11-27 07:48:49 51°13.65 2°55.913 120.1 5.3 298 -999
2007-11-27 07:48:54 51°13.654 2°55.903 119.7 5.3 298 -999
2007-11-27 07:48:59 51°13.657 2°55.892 119.2 5.3 297 -999
2007-11-27 07:49:04 51°13.66 2°55.882 118.5 5.3 297 -999
2007-11-27 07:49:09 51°13.664 2°55.872 117.7 5.2 296 -999
2007-11-27 07:49:14 51°13.667 2°55.861 116.8 5.2 296 -999
2007-11-27 07:49:19 51°13.67 2°55.851 115.7 5.1 294 -999
2007-11-27 07:49:24 51°13.672 2°55.841 114.5 5 293 -999
2007-11-27 07:49:29 51°13.675 2°55.831 113.4 4.9 292 -999
2007-11-27 07:49:34 51°13.677 2°55.821 112.5 4.8 291 -999
2007-11-27 07:49:39 51°13.679 2°55.812 111.6 4.5 290 -999
2007-11-27 07:49:44 51°13.681 2°55.803 111.1 4.3 290 -999
2007-11-27 07:49:49 51°13.683 2°55.794 110.7 4.2 289 -999
2007-11-27 07:49:54 51°13.685 2°55.786 110.3 4 288 -999
2007-11-27 07:49:59 51°13.686 2°55.778 109.8 3.8 288 8.7
2007-11-27 07:50:04 51°13.688 2°55.77 109.8 3.7 288 9.5
2007-11-27 07:50:09 51°13.689 2°55.763 109.8 3.4 288 10.3
2007-11-27 07:50:14 51°13.691 2°55.757 110.2 3.1 288 10.3
2007-11-27 07:50:19 51°13.692 2°55.751 110.3 2.6 288 10.4
2007-11-27 07:50:24 51°13.693 2°55.748 110.3 1.8 291 10.5
2007-11-27 07:50:29 51°13.693 2°55.745 109.7 1.2 292 11
2007-11-27 07:50:34 51°13.694 2°55.745 108.4 0.4 310 10.9
2007-11-27 07:50:39 51°13.694 2°55.746 105.3 0.4 52 10.9
2007-11-27 07:50:44 51°13.695 2°55.748 100.2 0.9 76 10.9
2007-11-27 07:50:49 51°13.695 2°55.751 93.8 1.3 78 11.1
2007-11-27 07:50:54 51°13.696 2°55.754 86.5 1.3 66 11.2
2007-11-27 07:50:59 51°13.696 2°55.756 79.8 1.1 68 11.1
2007-11-27 07:51:04 51°13.697 2°55.757 75.7 0.7 56 11.2
2007-11-27 07:51:09 51°13.697 2°55.757 72.3 0.2 43 11.5
2007-11-27 07:51:14 51°13.697 2°55.756 68.9 0.3 270 11.7
2007-11-27 07:51:19 51°13.696 2°55.755 66 0.8 249 11.4
2007-11-27 07:51:24 51°13.696 2°55.752 63.6 1.2 249 11.3
2007-11-27 07:51:29 51°13.695 2°55.749 62 1.6 245 11.3
2007-11-27 07:51:34 51°13.694 2°55.745 60.2 1.7 245 11.2
2007-11-27 07:51:39 51°13.693 2°55.742 58.5 1.6 244 5
2007-11-27 07:51:44 51°13.692 2°55.739 56.9 1.5 245 -999
2007-11-27 07:51:49 51°13.691 2°55.736 55.7 1.5 243 -999
2007-11-27 07:51:54 51°13.69 2°55.733 54.4 1.4 241 -999
2007-11-27 07:51:59 51°13.689 2°55.731 53.4 1.3 241 -999
2007-11-27 07:52:04 51°13.688 2°55.728 52.3 1.2 242 -999
2007-11-27 07:52:09 51°13.688 2°55.727 51.3 1 241 11.6
2007-11-27 07:52:14 51°13.687 2°55.725 50 0.7 244 11.4
2007-11-27 07:52:19 51°13.687 2°55.725 48.9 0.5 250 11.5
2007-11-27 07:52:24 51°13.688 2°55.725 46.1 0.2 290 11.4
2007-11-27 07:52:29 51°13.689 2°55.725 43.6 0.5 13 11.4
2007-11-27 07:52:33 51°13.69 2°55.726 39.1 1 22 11.2
2007-11-27 07:52:38 51°13.692 2°55.727 35.3 1.5 18 11.2
2007-11-27 07:52:43 51°13.695 2°55.728 29.1 2 13 11.1
2007-11-27 07:52:48 51°13.698 2°55.728 20.7 2.4 7 4.8
2007-11-27 07:52:54 51°13.703 2°55.728 13 2.6 359 -999
2007-11-27 07:52:59 51°13.707 2°55.728 3.6 2.7 353 12.7
2007-11-27 07:53:04 51°13.711 2°55.726 356.3 3 345 11
2007-11-27 07:53:09 51°13.716 2°55.723 351.6 3.8 342 10.3
2007-11-27 07:53:14 51°13.722 2°55.719 347.6 4.5 337 10
2007-11-27 07:53:19 51°13.729 2°55.714 342.7 5.1 335 9.6
2007-11-27 07:53:24 51°13.737 2°55.709 340.2 5.7 336 9.2
2007-11-27 07:53:28 51°13.743 2°55.704 339.6 6.2 335 9.3
2007-11-27 07:53:33 51°13.751 2°55.698 339 6.6 335 9.3
2007-11-27 07:53:38 51°13.76 2°55.692 338.6 6.9 335 9.2
2007-11-27 07:53:43 51°13.77 2°55.685 338.1 7.3 335 9.2
2007-11-27 07:53:48 51°13.779 2°55.678 337.9 7.5 335 9.1
2007-11-27 07:53:53 51°13.789 2°55.671 338.2 7.8 335 9.1
2007-11-27 07:53:58 51°13.799 2°55.663 338.2 8 334 9
2007-11-27 07:54:03 51°13.809 2°55.655 337.5 8.2 335 9
2007-11-27 07:54:08 51°13.82 2°55.648 337.5 8.3 335 8.9
2007-11-27 07:54:13 51°13.831 2°55.64 338 8.5 336 9
2007-11-27 07:54:17 51°13.839 2°55.633 337.9 8.5 334 8.8
2007-11-27 07:54:23 51°13.853 2°55.624 337.5 6.6 335 8.8
2007-11-27 07:54:27 51°13.862 2°55.617 338 8.5 335 9
2007-11-27 07:54:32 51°13.873 2°55.609 338.2 9 335 8.9
2007-11-27 07:54:37 51°13.884 2°55.6 337.5 9 334 9
2007-11-27 07:54:42 51°13.896 2°55.592 337.5 9 336 9
2007-11-27 07:54:47 51°13.907 2°55.583 337.9 9.1 334 9.1
2007-11-27 07:54:52 51°13.918 2°55.575 337.6 9.1 334 9.1
2007-11-27 07:54:57 51°13.93 2°55.566 337.5 9.2 334 9.1
2007-11-27 07:55:02 51°13.941 2°55.557 337.5 9.2 335 8.9
2007-11-27 07:55:07 51°13.953 2°55.548 337.7 9.3 334 8.9
2007-11-27 07:55:12 51°13.965 2°55.54 337.7 9.3 335 9
2007-11-27 07:55:17 51°13.976 2°55.532 337.7 9.3 335 9
2007-11-27 07:55:21 51°13.987 2°55.526 338.6 9.3 337 8.9
2007-11-27 07:55:27 51°14.001 2°55.516 338.7 9.3 335 9
2007-11-27 07:55:32 51°14.012 2°55.507 338.1 9.3 335 8.7
2007-11-27 07:55:36 51°14.022 2°55.5 337.8 9.3 336 8.6
2007-11-27 07:55:41 51°14.033 2°55.491 338.3 9.3 336 8.7
2007-11-27 07:55:46 51°14.044 2°55.483 338.7 9.3 336 8.4
2007-11-27 07:55:51 51°14.056 2°55.475 338.5 9.3 336 8.8
2007-11-27 07:55:56 51°14.068 2°55.466 338.5 9.3 336 9.1
2007-11-27 07:56:01 51°14.08 2°55.458 338.8 9.3 336 9.1
2007-11-27 07:56:06 51°14.091 2°55.449 338.9 9.2 336 9.1
2007-11-27 07:56:11 51°14.103 2°55.441 338.8 9.2 335 9.1
2007-11-27 07:56:16 51°14.115 2°55.432 337.8 9.2 334 9.1
2007-11-27 07:56:21 51°14.126 2°55.422 336.1 9.2 332 9.1
2007-11-27 07:56:25 51°14.135 2°55.414 334.7 9.2 332 9.2
2007-11-27 07:56:30 51°14.146 2°55.404 334.1 9.2 331 9.2
2007-11-27 07:56:36 51°14.159 2°55.392 333.1 9.3 329 9.2
2007-11-27 07:56:41 51°14.169 2°55.38 331.6 9.4 328 9.1
2007-11-27 07:56:45 51°14.178 2°55.371 329.7 9.5 326 9.2
2007-11-27 07:56:50 51°14.189 2°55.358 328.3 9.6 325 9.2
2007-11-27 07:56:55 51°14.199 2°55.346 327.1 9.6 323 9.2
2007-11-27 07:57:00 51°14.21 2°55.333 325.7 9.7 322 9.2
2007-11-27 07:57:05 51°14.221 2°55.319 324.4 9.8 321 9.2
2007-11-27 07:57:10 51°14.231 2°55.305 323.4 9.9 320 9.2
2007-11-27 07:57:15 51°14.241 2°55.29 322.2 9.9 319 9.2
2007-11-27 07:57:20 51°14.252 2°55.276 322.1 10.1 319 8.8
2007-11-27 07:57:25 51°14.262 2°55.261 321.5 10.2 318 9
2007-11-27 07:57:30 51°14.273 2°55.245 320.8 10.3 317 9.1
2007-11-27 07:57:35 51°14.283 2°55.229 320.2 10.4 315 9.3
2007-11-27 07:57:40 51°14.293 2°55.212 318.1 10.6 312 9.4
2007-11-27 07:57:45 51°14.303 2°55.194 315.7 10.7 311 9.2
2007-11-27 07:57:50 51°14.313 2°55.176 313.5 10.9 308 9
2007-11-27 07:57:55 51°14.322 2°55.157 311.4 10.9 308 8.8
2007-11-27 07:58:00 51°14.331 2°55.137 310.3 11.1 306 9.1
2007-11-27 07:58:05 51°14.34 2°55.117 309 11.2 305 9.1
2007-11-27 07:58:10 51°14.349 2°55.096 307.4 11.4 303 9
2007-11-27 07:58:15 51°14.357 2°55.074 305.2 11.5 301 8.9
2007-11-27 07:58:20 51°14.365 2°55.052 303.3 11.6 299 8.6
2007-11-27 07:58:25 51°14.372 2°55.029 301.8 11.6 298 8.3
2007-11-27 07:58:30 51°14.38 2°55.006 301.9 11.6 298 8.3
2007-11-27 07:58:35 51°14.387 2°54.983 300.8 11.8 296 8.4
2007-11-27 07:58:40 51°14.394 2°54.959 299.5 12.1 295 8.5
2007-11-27 07:58:45 51°14.401 2°54.934 298.5 12.2 294 8.6
2007-11-27 07:58:50 51°14.408 2°54.909 298.7 12.4 294 8.7
2007-11-27 07:58:55 51°14.414 2°54.884 297.7 12.4 291 9
2007-11-27 07:59:00 51°14.42 2°54.857 295.2 12.6 287 8.9
2007-11-27 07:59:05 51°14.424 2°54.83 291.7 12.7 285 9
2007-11-27 07:59:10 51°14.428 2°54.803 289.1 12.7 283 9
2007-11-27 07:59:15 51°14.431 2°54.775 286.9 12.7 281 9.1
2007-11-27 07:59:20 51°14.434 2°54.747 284.9 12.6 278 8.9
2007-11-27 07:59:25 51°14.436 2°54.72 282.3 12.6 276 9
2007-11-27 07:59:30 51°14.437 2°54.692 279.5 12.7 273 9.1
2007-11-27 07:59:35 51°14.436 2°54.663 275.8 12.8 270 9.2
2007-11-27 07:59:40 51°14.435 2°54.635 272.2 12.7 266 8.8
2007-11-27 07:59:45 51°14.434 2°54.607 269.2 12.8 264 8.9
2007-11-27 07:59:50 51°14.431 2°54.579 266.6 12.8 262 8.8
2007-11-27 07:59:55 51°14.428 2°54.551 265.1 12.7 260 8.8
2007-11-27 08:00:00 51°14.424 2°54.524 262 12.8 257 8.8
2007-11-27 08:00:05 51°14.419 2°54.497 258.6 12.8 254 8.8
2007-11-27 08:00:10 51°14.414 2°54.469 257.1 12.9 254 8.3
2007-11-27 08:00:15 51°14.409 2°54.442 256.6 12.8 253 7.9
2007-11-27 08:00:20 51°14.403 2°54.415 255.6 12.8 251 7.9
2007-11-27 08:00:25 51°14.396 2°54.389 252.5 12.8 248 7.7
2007-11-27 08:00:30 51°14.39 2°54.362 251.8 12.7 249 7.7
2007-11-27 08:00:35 51°14.383 2°54.337 250.7 12.7 246 7.5
2007-11-27 08:00:40 51°14.376 2°54.31 249.3 12.8 248 7.6
2007-11-27 08:00:45 51°14.369 2°54.285 249.6 12.8 246 5.5
2007-11-27 08:00:50 51°14.362 2°54.258 249.1 12.8 247 7.4
2007-11-27 08:00:55 51°14.353 2°54.233 248.6 12.8 244 7.4
2007-11-27 08:01:00 51°14.346 2°54.207 246.4 12.8 242 7.3
2007-11-27 08:01:05 51°14.338 2°54.182 245.3 12.9 245 7.4
2007-11-27 08:01:10 51°14.33 2°54.156 246.6 12.9 244 5.3
2007-11-27 08:01:15 51°14.323 2°54.13 247.4 13 247 7.4
2007-11-27 08:01:20 51°14.314 2°54.104 247.6 13 243 7.3
2007-11-27 08:01:25 51°14.309 2°54.077 248.4 13 250 7.4
2007-11-27 08:01:30 51°14.301 2°54.051 251.1 13 248 7.3
2007-11-27 08:01:35 51°14.296 2°54.023 252.4 13 252 7.3
2007-11-27 08:01:40 51°14.289 2°53.997 254.5 12.9 248 7.4
2007-11-27 08:01:45 51°14.283 2°53.97 252.6 12.8 246 7.3
2007-11-27 08:01:50 51°14.273 2°53.946 247.3 12.9 240 7.4
2007-11-27 08:01:55 51°14.263 2°53.921 241.8 13.2 237 7.3
2007-11-27 08:02:00 51°14.254 2°53.896 240.2 13.2 238 7.4
2007-11-27 08:02:05 51°14.243 2°53.873 239 13.1 235 7.5
2007-11-27 08:02:10 51°14.234 2°53.849 239.2 13 237 7.5
2007-11-27 08:02:15 51°14.223 2°53.825 236.4 13.3 234 7.5
2007-11-27 08:02:20 51°14.213 2°53.8 237.1 13.3 237 7.5
2007-11-27 08:02:25 51°14.202 2°53.776 238.2 13.3 236 7.5
2007-11-27 08:02:30 51°14.193 2°53.751 239.6 13.2 240 7.5
2007-11-27 08:02:35 51°14.184 2°53.725 241.5 13.3 239 7.5
2007-11-27 08:02:40 51°14.176 2°53.699 243.1 13.2 242 7.6
2007-11-27 08:02:45 51°14.166 2°53.674 243.1 13.4 239 7.6
2007-11-27 08:02:50 51°14.159 2°53.647 244.1 13.3 245 7.6
2007-11-27 08:02:55 51°14.149 2°53.621 245.5 13.4 242 7.5
2007-11-27 08:03:00 51°14.143 2°53.594 247.5 13.3 246 7.6
2007-11-27 08:03:05 51°14.134 2°53.567 248.9 13.4 246 7.5
2007-11-27 08:03:10 51°14.128 2°53.54 250.5 13.3 248 7.6
2007-11-27 08:03:15 51°14.12 2°53.513 250.3 13.4 244 7.7
2007-11-27 08:03:20 51°14.111 2°53.487 246.9 13.3 241 7.8
2007-11-27 08:03:25 51°14.101 2°53.462 243.1 13.5 239 7.7
2007-11-27 08:03:30 51°14.091 2°53.436 241.4 13.6 239 7.8
2007-11-27 08:03:35 51°14.082 2°53.411 241.3 13.4 240 7.9
2007-11-27 08:03:40 51°14.071 2°53.385 241 13.5 238 7.7
2007-11-27 08:03:45 51°14.062 2°53.36 239.8 13.5 239 7.9
2007-11-27 08:03:50 51°14.051 2°53.335 240 13.5 236 7.9
2007-11-27 08:03:55 51°14.042 2°53.31 239.1 13.5 239 7.9
2007-11-27 08:04:00 51°14.032 2°53.284 240.2 13.6 241 7.9
2007-11-27 08:04:05 51°14.023 2°53.257 243.1 13.5 242 8
2007-11-27 08:04:10 51°14.015 2°53.231 244.9 13.6 244 8
2007-11-27 08:04:15 51°14.008 2°53.203 248.2 13.5 248 8
2007-11-27 08:04:20 51°14.001 2°53.175 252.2 13.5 250 8.1
2007-11-27 08:04:25 51°13.995 2°53.147 253.3 13.5 249 8.1
2007-11-27 08:04:30 51°13.988 2°53.119 254 13.6 250 8.1
2007-11-27 08:04:35 51°13.981 2°53.091 254.1 13.5 248 8.2
2007-11-27 08:04:40 51°13.974 2°53.064 252.2 13.5 246 8.2
2007-11-27 08:04:45 51°13.965 2°53.037 250 13.6 243 8.3
2007-11-27 08:04:50 51°13.956 2°53.012 247.2 13.5 241 8.2
2007-11-27 08:04:55 51°13.946 2°52.987 243.2 13.5 237 8.3
2007-11-27 08:05:00 51°13.935 2°52.962 239.1 13.6 236 8.3
2007-11-27 08:05:05 51°13.925 2°52.937 238 13.5 236 8.4
2007-11-27 08:05:10 51°13.915 2°52.914 238.4 12.8 236 8.3
2007-11-27 08:05:15 51°13.906 2°52.891 239.2 12.3 237 8.3
2007-11-27 08:05:20 51°13.897 2°52.869 240 11.7 238 8.4
2007-11-27 08:05:25 51°13.889 2°52.847 241.6 11.2 240 8.5
2007-11-27 08:05:30 51°13.882 2°52.827 243.1 10.7 241 8.6
2007-11-27 08:05:35 51°13.876 2°52.806 245.6 10.2 244 8.6
2007-11-27 08:05:40 51°13.87 2°52.787 248.2 9.7 246 8.7
2007-11-27 08:05:45 51°13.866 2°52.768 251.1 9.3 248 8.7
2007-11-27 08:05:50 51°13.861 2°52.75 253.4 9 247 8.7
2007-11-27 08:05:55 51°13.857 2°52.732 254.9 8.7 249 8.6
2007-11-27 08:06:00 51°13.853 2°52.715 256.1 8.3 250 8.6
2007-11-27 08:06:05 51°13.848 2°52.698 257 8.2 249 8.7
2007-11-27 08:06:10 51°13.845 2°52.681 257.1 8 251 8.7
2007-11-27 08:06:15 51°13.841 2°52.665 256.9 7.8 247 8.8
2007-11-27 08:06:20 51°13.837 2°52.65 256.1 7.2 245 8.7
2007-11-27 08:06:25 51°13.832 2°52.636 252.6 7.1 242 8.8
2007-11-27 08:06:30 51°13.827 2°52.623 247.5 6.8 240 8.8
2007-11-27 08:06:35 51°13.822 2°52.612 243 6.4 234 8.8
2007-11-27 08:06:40 51°13.817 2°52.602 238 6.2 230 8.8
2007-11-27 08:06:45 51°13.811 2°52.592 231.7 6.1 225 8.8
2007-11-27 08:06:50 51°13.805 2°52.583 227.1 5.8 221 8.8
2007-11-27 08:06:55 51°13.799 2°52.576 220.2 5.8 217 8.8
2007-11-27 08:07:00 51°13.792 2°52.569 214.5 5.5 211 8.8
2007-11-27 08:07:05 51°13.785 2°52.564 207.5 5.4 208 8.9
2007-11-27 08:07:10 51°13.778 2°52.559 201.1 5.5 202 8.8
2007-11-27 08:07:15 51°13.772 2°52.555 194.8 5.2 201 8.9
2007-11-27 08:07:20 51°13.765 2°52.553 188.8 5.1 189 8.8
2007-11-27 08:07:25 51°13.758 2°52.55 181.4 5.3 191 8.8
2007-11-27 08:07:30 51°13.751 2°52.55 175 4.8 182 8.8
2007-11-27 08:07:35 51°13.744 2°52.551 167.9 4.8 179 8.8
2007-11-27 08:07:40 51°13.738 2°52.552 161.4 4.6 170 8.7
2007-11-27 08:07:45 51°13.732 2°52.554 154.1 4.5 168 8.7
2007-11-27 08:07:50 51°13.726 2°52.557 148 4.3 162 8.6
2007-11-27 08:07:55 51°13.721 2°52.561 140.3 4.2 156 8.6
2007-11-27 08:08:00 51°13.716 2°52.565 134.6 3.9 148 8.6
2007-11-27 08:08:05 51°13.713 2°52.571 127.4 3.7 141 8.5
2007-11-27 08:08:10 51°13.709 2°52.576 121.1 3.6 136 8.4
2007-11-27 08:08:15 51°13.706 2°52.582 114.3 3.6 131 8.5
2007-11-27 08:08:20 51°13.704 2°52.588 107.4 3.1 120 8.4
2007-11-27 08:08:25 51°13.702 2°52.595 101.5 3.1 116 8.4
2007-11-27 08:08:30 51°13.701 2°52.601 94.5 3 108 8.4
2007-11-27 08:08:35 51°13.701 2°52.607 87.7 2.7 94 8.3
2007-11-27 08:08:40 51°13.701 2°52.613 81.9 2.7 87 8.4
2007-11-27 08:08:45 51°13.702 2°52.619 75.2 2.7 76 8.3
2007-11-27 08:08:50 51°13.703 2°52.624 68.9 2.8 72 8.4
2007-11-27 08:08:55 51°13.705 2°52.63 64.3 3 64 8.4
2007-11-27 08:09:00 51°13.707 2°52.637 61.1 3.3 64 8.4
2007-11-27 08:09:05 51°13.709 2°52.643 59.1 3.4 60 8.5
2007-11-27 08:09:10 51°13.712 2°52.65 58 3.6 60 8.3
2007-11-27 08:09:15 51°13.714 2°52.657 58.4 3.8 58 8.3
2007-11-27 08:09:20 51°13.717 2°52.665 58.6 4.1 63 8.4
2007-11-27 08:09:25 51°13.72 2°52.673 58.7 4.2 57 8.4
2007-11-27 08:09:30 51°13.723 2°52.682 59.2 4.5 61 8.3
2007-11-27 08:09:35 51°13.726 2°52.691 60.3 4.8 59 8.4
2007-11-27 08:09:40 51°13.729 2°52.702 62.1 5.5 68 8.4
2007-11-27 08:09:45 51°13.733 2°52.713 63.8 5.7 62 8.4
2007-11-27 08:09:50 51°13.737 2°52.725 64.6 6.2 65 8.4
2007-11-27 08:09:55 51°13.741 2°52.739 64.3 6.6 64 8.5
2007-11-27 08:10:00 51°13.745 2°52.752 63.3 6.8 62 8.4
2007-11-27 08:10:05 51°13.75 2°52.765 62.4 7 60 8.2
2007-11-27 08:10:10 51°13.755 2°52.779 61.2 7.3 60 8.2
2007-11-27 08:10:15 51°13.761 2°52.793 60.7 7.4 59 8.3
2007-11-27 08:10:20 51°13.766 2°52.808 60.4 7.7 63 8.1
2007-11-27 08:10:25 51°13.772 2°52.822 60.8 7.7 57 8.1
2007-11-27 08:10:30 51°13.776 2°52.838 61.2 7.9 61 8
2007-11-27 08:10:35 51°13.782 2°52.854 62.3 8.1 61 8.1
2007-11-27 08:10:40 51°13.787 2°52.869 62.3 8.2 63 8.1
2007-11-27 08:10:45 51°13.792 2°52.885 63.2 8.2 61 8
2007-11-27 08:10:50 51°13.797 2°52.902 64.5 8.3 67 8.1
2007-11-27 08:10:55 51°13.803 2°52.918 64.9 8.3 61 8.1
2007-11-27 08:11:00 51°13.808 2°52.935 64.2 8.3 62 8.2
2007-11-27 08:11:05 51°13.813 2°52.951 63.3 8.3 61 8
2007-11-27 08:11:10 51°13.819 2°52.966 62.6 8.3 59 7.9
2007-11-27 08:11:15 51°13.825 2°52.982 61 8.3 58 7.9
2007-11-27 08:11:20 51°13.832 2°52.998 59.8 8.4 55 8
2007-11-27 08:11:25 51°13.838 2°53.013 58.2 8.3 57 8.1
2007-11-27 08:11:30 51°13.844 2°53.028 58.2 7.9 55 8.1
2007-11-27 08:11:35 51°13.85 2°53.042 57.9 7.6 56 8.1
2007-11-27 08:11:40 51°13.856 2°53.054 57.7 7.1 54 8.1
2007-11-27 08:11:45 51°13.861 2°53.067 57.4 6.8 58 8
2007-11-27 08:11:50 51°13.866 2°53.079 58.1 6.5 54 8
2007-11-27 08:11:55 51°13.87 2°53.091 58.2 6.1 62 8
2007-11-27 08:12:00 51°13.875 2°53.101 59.3 5.7 57 8
2007-11-27 08:12:05 51°13.878 2°53.113 61.2 5.6 64 8.1
2007-11-27 08:12:10 51°13.881 2°53.123 63.8 5.4 67 8.1
2007-11-27 08:12:15 51°13.883 2°53.133 65.8 5.1 66 8
2007-11-27 08:12:20 51°13.885 2°53.144 68.2 4.8 69 8
2007-11-27 08:12:25 51°13.888 2°53.154 68.7 4.7 70 8.1
2007-11-27 08:12:30 51°13.89 2°53.163 69.6 4.5 73 8
2007-11-27 08:12:35 51°13.892 2°53.172 70 4.4 69 8
2007-11-27 08:12:40 51°13.893 2°53.181 70.3 4.1 68 8.1
2007-11-27 08:12:45 51°13.895 2°53.19 70.1 4.2 72 8
2007-11-27 08:12:50 51°13.897 2°53.198 69.5 3.9 67 8
2007-11-27 08:12:55 51°13.899 2°53.206 68.1 3.8 70 8.1
2007-11-27 08:13:00 51°13.901 2°53.214 67.5 3.6 68 8
2007-11-27 08:13:05 51°13.903 2°53.221 66 3.6 69 7.9
2007-11-27 08:13:10 51°13.905 2°53.228 64.7 3.5 66 8
2007-11-27 08:13:15 51°13.907 2°53.234 63.3 3.3 63 8
2007-11-27 08:13:20 51°13.909 2°53.241 61.9 3.2 62 7.9
2007-11-27 08:13:25 51°13.911 2°53.247 60.2 3.1 61 8
2007-11-27 08:13:30 51°13.913 2°53.253 59.2 3 60 8
2007-11-27 08:13:35 51°13.915 2°53.258 58.1 2.8 56 7.9
2007-11-27 08:13:40 51°13.917 2°53.264 59.1 2.8 67 7.9
2007-11-27 08:13:45 51°13.919 2°53.268 60.5 2.5 61 7.9
2007-11-27 08:13:50 51°13.92 2°53.273 62 2.4 68 7.8
2007-11-27 08:13:55 51°13.922 2°53.278 63.7 2.2 63 7.8
2007-11-27 08:14:00 51°13.923 2°53.282 64.5 2.2 67 7.9
2007-11-27 08:14:05 51°13.924 2°53.287 64.8 2.2 63 8
2007-11-27 08:14:10 51°13.925 2°53.291 62.4 2 60 7.9
2007-11-27 08:14:15 51°13.927 2°53.295 59.3 2 57 7.9
2007-11-27 08:14:20 51°13.928 2°53.298 55.2 1.9 43 7.9
2007-11-27 08:14:25 51°13.93 2°53.301 50.8 2 49 8
2007-11-27 08:14:30 51°13.933 2°53.303 46 1.9 32 7.9
2007-11-27 08:14:35 51°13.935 2°53.305 41.2 2 26 8
2007-11-27 08:14:40 51°13.938 2°53.307 36.6 1.9 24 7.9
2007-11-27 08:14:45 51°13.94 2°53.307 31.3 2.1 2 7.9
2007-11-27 08:14:50 51°13.943 2°53.308 26.3 2 8 8
2007-11-27 08:14:55 51°13.946 2°53.307 21.4 2.2 350 7.9
2007-11-27 08:15:00 51°13.949 2°53.306 16.1 2.3 348 8
2007-11-27 08:15:05 51°13.953 2°53.304 11.2 2.4 340 8
2007-11-27 08:15:10 51°13.956 2°53.303 5.8 2.4 339 8
2007-11-27 08:15:15 51°13.959 2°53.3 0.8 2.6 331 8
2007-11-27 08:15:20 51°13.962 2°53.297 355.6 2.7 325 8.1
2007-11-27 08:15:25 51°13.965 2°53.293 351.3 2.9 325 8
2007-11-27 08:15:30 51°13.968 2°53.289 348.5 3 324 8.2
2007-11-27 08:15:35 51°13.972 2°53.285 346.9 2.9 323 8.1
2007-11-27 08:15:40 51°13.975 2°53.281 345.6 2.9 318 8
2007-11-27 08:15:45 51°13.978 2°53.277 344.7 2.7 320 8
2007-11-27 08:15:50 51°13.98 2°53.273 344.2 2.7 316 8
2007-11-27 08:15:55 51°13.983 2°53.269 343.5 2.6 315 8.1
2007-11-27 08:16:00 51°13.985 2°53.265 343.2 2.4 315 8.1
2007-11-27 08:16:05 51°13.988 2°53.262 342.8 2.4 311 8.2
2007-11-27 08:16:10 51°13.99 2°53.258 342 2.3 312 8.2
2007-11-27 08:16:15 51°13.992 2°53.254 341.8 2.3 311 8.2
2007-11-27 08:16:20 51°13.994 2°53.25 341.1 2.3 306 8.2
2007-11-27 08:16:25 51°13.996 2°53.246 340.6 2.2 308 8.3
2007-11-27 08:16:30 51°13.998 2°53.242 340 2.2 305 8.3
2007-11-27 08:16:35 51°13.999 2°53.238 339.4 2.1 305 8.3
2007-11-27 08:16:40 51°14.001 2°53.234 338.8 2.1 300 8.2
2007-11-27 08:16:45 51°14.002 2°53.23 337.9 2.1 300 8.3
2007-11-27 08:16:50 51°14.003 2°53.226 337.2 2 300 8.3
2007-11-27 08:16:55 51°14.004 2°53.223 336.3 2 295 8.3
2007-11-27 08:17:00 51°14.005 2°53.218 335.4 2.1 290 8.4
2007-11-27 08:17:05 51°14.006 2°53.214 334.8 1.9 296 8.3
2007-11-27 08:17:10 51°14.007 2°53.21 333.9 2 291 8.4
2007-11-27 08:17:15 51°14.008 2°53.206 333.1 2 291 8.4
2007-11-27 08:17:20 51°14.009 2°53.202 332.7 1.9 287 8.4
2007-11-27 08:17:25 51°14.01 2°53.198 331.9 1.9 285 8.3
2007-11-27 08:17:30 51°14.011 2°53.194 331.1 1.8 287 8.4
2007-11-27 08:17:35 51°14.011 2°53.19 330.8 1.9 281 8.4
2007-11-27 08:17:40 51°14.012 2°53.186 330 1.9 282 8.4
2007-11-27 08:17:45 51°14.012 2°53.182 329.5 1.9 279 8.5
2007-11-27 08:17:50 51°14.013 2°53.178 328.8 1.8 279 8.4
2007-11-27 08:17:55 51°14.013 2°53.174 328.4 1.8 278 8.5
2007-11-27 08:18:00 51°14.014 2°53.171 327.8 1.7 280 8.5
2007-11-27 08:18:05 51°14.014 2°53.166 327.3 1.9 272 8.5
2007-11-27 08:18:10 51°14.014 2°53.162 326.6 1.7 274 8.5
2007-11-27 08:18:15 51°14.014 2°53.158 326.1 1.8 271 8.6
2007-11-27 08:18:20 51°14.014 2°53.154 325.6 1.8 269 8.6
2007-11-27 08:18:25 51°14.014 2°53.151 325.1 1.7 272 8.4
2007-11-27 08:18:30 51°14.014 2°53.146 324.5 1.8 268 8.5
2007-11-27 08:18:35 51°14.014 2°53.142 323.6 1.8 268 8.5
2007-11-27 08:18:40 51°14.014 2°53.139 323.7 1.8 270 8.5
2007-11-27 08:18:45 51°14.014 2°53.135 322.9 1.9 270 8.5
2007-11-27 08:18:50 51°14.014 2°53.13 322.4 2 276 8.5
2007-11-27 08:18:55 51°14.015 2°53.125 322.2 2.4 281 8.5
2007-11-27 08:19:00 51°14.016 2°53.119 322.2 2.6 288 8.6
2007-11-27 08:19:05 51°14.017 2°53.113 322.3 2.9 288 8.6
2007-11-27 08:19:10 51°14.018 2°53.107 322.9 3 293 8.6
2007-11-27 08:19:15 51°14.02 2°53.101 323.7 3.3 294 8.6
2007-11-27 08:19:20 51°14.022 2°53.094 324.6 3.3 297 8.7
2007-11-27 08:19:25 51°14.024 2°53.088 325.7 3.3 295 8.6
2007-11-27 08:19:30 51°14.026 2°53.081 326.7 3.1 296 8.7
2007-11-27 08:19:35 51°14.027 2°53.076 327.6 2.8 290 8.7
2007-11-27 08:19:40 51°14.028 2°53.071 329.5 2.1 290 8.7
2007-11-27 08:19:45 51°14.028 2°53.066 332.2 2.1 275 8.8
2007-11-27 08:19:50 51°14.028 2°53.063 335.3 1.6 266 8.8
2007-11-27 08:19:55 51°14.028 2°53.059 338.2 1.6 257 8.7
2007-11-27 08:20:00 51°14.027 2°53.056 340.7 1.5 245 8.7
2007-11-27 08:20:05 51°14.026 2°53.053 342.5 1.6 244 8.8
2007-11-27 08:20:10 51°14.025 2°53.05 344.1 1.6 242 8.8
2007-11-27 08:20:15 51°14.023 2°53.047 345.8 1.6 233 8.7
2007-11-27 08:20:20 51°14.022 2°53.044 346.5 1.6 232 8.8
2007-11-27 08:20:25 51°14.021 2°53.042 347.7 1.5 231 8.8
2007-11-27 08:20:30 51°14.019 2°53.039 348.3 1.6 232 8.8